North Columbia, New York
Current Conditions -  °F | °C
As of 9:53 AM on Thursday 30 Oct 2014 (Local Time) from KRME Reporting Station
Light Rain Light Rain  
Wind Chill: 41°   Ceiling: 3400
Heat Index: 45°   Visibility: 8mi
Dew Point: 42°   Wind: 7mph
Humidity: 90%   Direction: 280°W
Pressure: 30.03"   Gusts: NA
Location:  42.9693°N, 75.0798°W
Report Text: KRME 301353Z 28006KT 8SM -RA SCT010 BKN034 OVC040 07/06 A3003 RMK AO2 RAB36 SLP169 P0000 T00720056
Loading
Personal Weather Stations






























Interactive Weather Map
Tropical Storm Tracking
New forecast layout! Learn more

10-Day Weather Forecast

Advertisements
Track Severe Weather on mobile